CheckWX is a tool to help pilots better visualize weather data.  It is not intended as a substitute for an official pre-flight weather briefing.

05:53:06 UTC

KBNA TAF
Nashville International Airport
Nashville, Tennessee, USA
KBNA 030520Z 0306/0406 04006KT P6SM FEW060 FEW250

Jul-3@
06:00 UTC

Jul-3 @ 06:00 UTC

Jul-4@
06:00 UTC

Jul-4 @ 06:00 UTC

TAF KBNA 030520Z 0306/0406 04006KT P6SM FEW060 FEW250
Wind
  • 040° at 6 KTS
Cloud Levels
  • Few at 6,000' AGL
  • Few at 25,000' AGL